createdAt,value
2023-05-15T00:01:32.842Z,4.30
2023-05-15T00:04:01.558Z,4.97
2023-05-15T00:06:30.561Z,6.45
2023-05-15T00:08:59.141Z,4.72
2023-05-15T00:11:28.212Z,4.40
2023-05-15T00:13:56.731Z,4.60
2023-05-15T00:16:25.822Z,4.15
2023-05-15T00:18:54.374Z,4.03
2023-05-15T00:21:23.230Z,4.70
2023-05-15T00:23:54.469Z,3.53
2023-05-15T00:26:23.651Z,4.25
2023-05-15T00:28:52.399Z,4.50
2023-05-15T00:31:21.468Z,4.38
2023-05-15T00:33:49.981Z,4.07
2023-05-15T00:36:21.808Z,3.78
2023-05-15T00:38:54.277Z,3.60
2023-05-15T00:41:23.886Z,4.07
2023-05-15T00:43:52.856Z,4.85
2023-05-15T00:46:22.290Z,5.25
2023-05-15T00:48:51.236Z,4.40
2023-05-15T00:51:20.157Z,5.10
2023-05-15T00:53:48.770Z,6.18
2023-05-15T00:56:17.677Z,2.97
2023-05-15T00:58:50.188Z,3.65
2023-05-15T01:01:20.993Z,5.43
2023-05-15T01:03:49.560Z,4.60
2023-05-15T01:06:18.459Z,3.92
2023-05-15T01:08:47.448Z,4.00
2023-05-15T01:11:17.611Z,7.32
2023-05-15T01:13:47.846Z,5.30
2023-05-15T01:16:16.842Z,3.65
2023-05-15T01:18:45.331Z,4.75
2023-05-15T01:21:34.472Z,6.35
2023-05-15T01:24:46.586Z,4.53
2023-05-15T01:27:39.958Z,6.10
2023-05-15T01:30:39.258Z,8.37
2023-05-15T01:33:32.945Z,4.93
2023-05-15T01:36:43.399Z,4.38
2023-05-15T01:39:12.393Z,3.70
2023-05-15T01:41:59.755Z,4.28
2023-05-15T01:44:55.518Z,5.40
2023-05-15T01:47:34.123Z,6.10
2023-05-15T01:50:03.837Z,4.45
2023-05-15T01:52:38.929Z,4.63
2023-05-15T01:55:08.750Z,4.47
2023-05-15T01:57:37.286Z,5.97
2023-05-15T02:00:07.198Z,4.80
2023-05-15T02:02:43.156Z,6.38
2023-05-15T02:05:13.475Z,8.00
2023-05-15T02:07:44.994Z,5.32
2023-05-15T02:10:14.007Z,5.22
2023-05-15T02:12:47.612Z,4.68
2023-05-15T02:15:16.386Z,6.65
2023-05-15T02:17:44.851Z,5.38
2023-05-15T02:20:14.573Z,6.97
2023-05-15T02:22:43.105Z,5.50
2023-05-15T02:25:11.864Z,5.63
2023-05-15T02:27:48.950Z,5.65
2023-05-15T02:30:46.520Z,5.18
2023-05-15T02:33:36.281Z,4.57
2023-05-15T02:36:10.113Z,5.82
2023-05-15T02:38:53.704Z,6.90
2023-05-15T02:41:22.830Z,4.95
2023-05-15T02:43:52.538Z,5.93
2023-05-15T02:46:21.665Z,7.68
2023-05-15T02:48:50.526Z,10.60
2023-05-15T02:51:19.307Z,5.38
2023-05-15T02:53:47.846Z,4.72
2023-05-15T02:56:16.724Z,4.85
2023-05-15T02:58:45.241Z,4.80
2023-05-15T03:01:14.211Z,4.45
2023-05-15T03:03:42.680Z,4.90
2023-05-15T03:06:11.738Z,5.50
2023-05-15T03:08:40.206Z,5.38
2023-05-15T03:11:08.962Z,5.07
2023-05-15T03:13:37.530Z,4.68
2023-05-15T03:16:06.650Z,6.30
2023-05-15T03:18:35.240Z,5.75
2023-05-15T03:21:04.320Z,7.57
2023-05-15T03:23:34.022Z,8.63
2023-05-15T03:26:04.673Z,5.00
2023-05-15T03:28:33.322Z,4.13
2023-05-15T03:31:02.315Z,4.72
2023-05-15T03:33:32.562Z,5.90
2023-05-15T03:36:01.384Z,4.60
2023-05-15T03:38:29.833Z,5.80
2023-05-15T03:40:58.770Z,4.45
2023-05-15T03:43:27.448Z,3.95
2023-05-15T03:45:56.451Z,4.22
2023-05-15T03:48:25.545Z,4.10
2023-05-15T03:50:54.440Z,6.47
2023-05-15T03:53:23.144Z,6.10
2023-05-15T03:55:54.839Z,4.80
2023-05-15T03:58:23.360Z,3.47
2023-05-15T04:00:52.233Z,4.82
2023-05-15T04:03:20.975Z,3.45
2023-05-15T04:05:50.361Z,4.78
2023-05-15T04:08:19.056Z,5.68
2023-05-15T04:10:48.206Z,4.05
2023-05-15T04:13:16.842Z,4.55
2023-05-15T04:15:45.953Z,3.97
2023-05-15T04:18:14.528Z,3.33
2023-05-15T04:20:43.467Z,3.83
2023-05-15T04:23:12.073Z,3.70
2023-05-15T04:25:46.466Z,2.97
2023-05-15T04:28:15.286Z,4.10
2023-05-15T04:30:44.259Z,2.92
2023-05-15T04:33:12.972Z,3.47
2023-05-15T04:35:41.927Z,2.20
2023-05-15T04:38:10.573Z,2.20
2023-05-15T04:40:39.454Z,2.60
2023-05-15T04:43:08.561Z,2.90
2023-05-15T04:45:37.474Z,2.05
2023-05-15T04:48:06.892Z,1.70
2023-05-15T04:50:37.311Z,2.25
2023-05-15T04:53:06.030Z,2.28
2023-05-15T04:55:34.945Z,2.75
2023-05-15T04:58:03.682Z,2.03
2023-05-15T05:00:32.862Z,3.13
2023-05-15T05:03:01.566Z,1.38
2023-05-15T05:05:30.601Z,1.27
2023-05-15T05:07:59.186Z,2.75
2023-05-15T05:10:28.128Z,1.23
2023-05-15T05:12:56.727Z,6.00
2023-05-15T05:15:25.972Z,1.60
2023-05-15T05:17:54.887Z,1.20
2023-05-15T05:20:23.941Z,1.88
2023-05-15T05:22:52.715Z,7.57
2023-05-15T05:25:21.804Z,1.88
2023-05-15T05:27:50.540Z,2.03
2023-05-15T05:30:19.656Z,3.35
2023-05-15T05:32:48.379Z,1.98
2023-05-15T05:35:17.617Z,2.03
2023-05-15T05:37:46.394Z,2.00
2023-05-15T05:40:15.796Z,1.45
2023-05-15T05:42:44.360Z,2.47
2023-05-15T05:45:13.326Z,2.25
2023-05-15T05:47:41.976Z,2.88
2023-05-15T05:50:11.271Z,1.77
2023-05-15T05:52:39.913Z,6.55
2023-05-15T05:55:09.747Z,4.90
2023-05-15T05:57:38.284Z,2.13
2023-05-15T06:00:11.126Z,2.25
2023-05-15T06:05:10.040Z,3.53
2023-05-15T06:07:38.653Z,4.35
2023-05-15T06:10:10.025Z,7.20
2023-05-15T06:12:38.958Z,6.22
2023-05-15T06:15:08.547Z,7.95
2023-05-15T06:17:37.722Z,8.13
2023-05-15T06:20:08.860Z,10.93
2023-05-15T06:22:37.847Z,9.35
2023-05-15T06:25:07.518Z,11.43
2023-05-15T06:27:36.312Z,9.10
2023-05-15T06:30:06.420Z,7.80
2023-05-15T06:32:35.625Z,6.82
2023-05-15T06:35:04.977Z,6.57
2023-05-15T06:37:33.740Z,5.35
2023-05-15T06:40:03.350Z,4.40
2023-05-15T06:42:32.261Z,8.55
2023-05-15T06:45:01.904Z,10.10
2023-05-15T06:47:30.946Z,5.15
2023-05-15T06:50:00.062Z,4.60
2023-05-15T06:52:28.878Z,5.18
2023-05-15T06:54:58.169Z,5.68
2023-05-15T06:57:27.142Z,4.15
2023-05-15T06:59:56.262Z,4.70
2023-05-15T07:02:25.096Z,4.68
2023-05-15T07:04:54.378Z,5.32
2023-05-15T07:07:23.164Z,5.28
2023-05-15T07:09:52.275Z,5.50
2023-05-15T07:12:21.040Z,6.93
2023-05-15T07:14:50.131Z,5.55
2023-05-15T07:17:19.575Z,5.45
2023-05-15T07:19:48.712Z,6.47
2023-05-15T07:22:17.538Z,9.20
2023-05-15T07:24:46.848Z,5.60
2023-05-15T07:27:15.613Z,5.20
2023-05-15T07:29:44.945Z,5.75
2023-05-15T07:32:13.771Z,7.75
2023-05-15T07:34:43.047Z,8.77
2023-05-15T07:37:11.851Z,9.82
2023-05-15T07:39:40.997Z,9.88
2023-05-15T07:42:09.832Z,11.20
2023-05-15T07:44:39.018Z,8.55
2023-05-15T07:47:07.838Z,12.75
2023-05-15T07:49:36.965Z,9.35
2023-05-15T07:52:05.988Z,8.30
2023-05-15T07:54:35.111Z,9.15
2023-05-15T07:57:04.251Z,8.18
2023-05-15T07:59:33.506Z,7.35
2023-05-15T08:02:02.616Z,9.30
2023-05-15T08:04:31.827Z,7.85
2023-05-15T08:07:00.655Z,7.15
2023-05-15T08:09:30.049Z,6.78
2023-05-15T08:12:14.530Z,6.13
2023-05-15T08:14:43.760Z,8.45
2023-05-15T08:17:12.681Z,5.60
2023-05-15T08:19:41.808Z,5.40
2023-05-15T08:22:10.678Z,6.82
2023-05-15T08:24:40.153Z,5.28
2023-05-15T08:27:09.068Z,4.82
2023-05-15T08:29:39.492Z,16.88
2023-05-15T08:32:09.375Z,9.52
2023-05-15T08:34:38.989Z,8.38
2023-05-15T08:37:07.682Z,4.68
2023-05-15T08:39:36.569Z,5.18
2023-05-15T08:42:34.246Z,5.43
2023-05-15T08:45:03.932Z,3.58
2023-05-15T08:47:33.323Z,3.72
2023-05-15T08:50:07.925Z,7.95
2023-05-15T08:52:36.736Z,6.55
2023-05-15T08:55:06.142Z,7.57
2023-05-15T08:57:34.743Z,4.22
2023-05-15T09:00:09.406Z,7.10
2023-05-15T09:02:38.745Z,9.80
2023-05-15T09:05:09.955Z,6.93
2023-05-15T09:07:42.331Z,7.10
2023-05-15T09:10:11.619Z,6.93
2023-05-15T09:12:46.446Z,5.78
2023-05-15T09:15:22.332Z,7.05
2023-05-15T09:17:51.098Z,7.03
2023-05-15T09:20:30.524Z,5.40
2023-05-15T09:23:00.123Z,8.20
2023-05-15T09:25:43.069Z,6.35
2023-05-15T09:28:29.744Z,5.38
2023-05-15T09:31:03.962Z,5.80
2023-05-15T09:33:40.512Z,8.02
2023-05-15T09:36:09.972Z,9.13
2023-05-15T09:38:43.392Z,9.25
2023-05-15T09:41:12.250Z,5.90
2023-05-15T09:43:41.373Z,7.82
2023-05-15T09:46:13.313Z,6.43
2023-05-15T09:48:42.041Z,4.88
2023-05-15T09:51:18.595Z,5.10
2023-05-15T09:53:53.498Z,4.90
2023-05-15T09:56:22.712Z,7.90
2023-05-15T09:59:01.403Z,8.00
2023-05-15T10:01:30.398Z,5.22
2023-05-15T10:04:06.850Z,5.75
2023-05-15T10:06:43.460Z,9.23
2023-05-15T10:09:13.036Z,6.13
2023-05-15T10:11:45.448Z,6.47
2023-05-15T10:14:14.542Z,7.70
2023-05-15T10:16:43.423Z,9.75
2023-05-15T10:19:13.428Z,5.63
2023-05-15T10:21:42.733Z,9.02
2023-05-15T10:24:11.676Z,8.00
2023-05-15T10:26:42.272Z,8.27
2023-05-15T10:29:12.962Z,9.20
2023-05-15T10:31:42.336Z,9.02
2023-05-15T10:34:11.398Z,7.95
2023-05-15T10:36:41.179Z,6.20
2023-05-15T10:39:09.837Z,5.05
2023-05-15T10:41:39.493Z,5.72
2023-05-15T10:44:08.017Z,5.97
2023-05-15T10:46:37.254Z,9.60
2023-05-15T10:49:05.855Z,7.47
2023-05-15T10:51:36.969Z,7.63
2023-05-15T10:54:06.107Z,5.60
2023-05-15T10:56:35.125Z,5.88
2023-05-15T10:59:09.255Z,7.75
2023-05-15T11:01:39.622Z,9.23
2023-05-15T11:04:18.704Z,6.07
2023-05-15T11:06:49.587Z,9.10
2023-05-15T11:09:27.220Z,8.27
2023-05-15T11:11:57.977Z,8.57
2023-05-15T11:14:44.909Z,8.90
2023-05-15T11:17:17.796Z,6.97
2023-05-15T11:19:52.015Z,13.43
2023-05-15T11:22:31.674Z,13.35
2023-05-15T11:25:09.312Z,7.68
2023-05-15T11:27:45.165Z,5.93
2023-05-15T11:30:25.294Z,6.07
2023-05-15T11:33:09.112Z,6.43
2023-05-15T11:35:44.195Z,4.72
2023-05-15T11:38:17.810Z,2.40
2023-05-15T11:40:57.026Z,5.78
2023-05-15T11:43:30.774Z,7.50
2023-05-15T11:48:48.054Z,3.13
2023-05-15T11:53:56.176Z,2.80
2023-05-15T11:56:28.689Z,4.55
2023-05-15T11:58:59.309Z,6.35
2023-05-15T12:01:29.793Z,7.50
2023-05-15T12:03:58.960Z,4.25
2023-05-15T12:06:27.705Z,3.20
2023-05-15T12:08:56.757Z,4.63
2023-05-15T12:11:25.500Z,5.32
2023-05-15T12:13:55.281Z,4.60
2023-05-15T12:16:27.565Z,4.80
2023-05-15T12:18:59.501Z,3.08
2023-05-15T12:21:28.330Z,3.55
2023-05-15T12:26:28.980Z,3.10
2023-05-15T12:28:57.799Z,3.30
2023-05-15T12:31:26.276Z,3.92
2023-05-15T12:33:55.838Z,8.32
2023-05-15T12:36:24.624Z,5.10
2023-05-15T12:38:53.636Z,5.72
2023-05-15T12:41:22.516Z,3.40
2023-05-15T12:43:52.206Z,3.00
2023-05-15T12:46:29.723Z,2.75
2023-05-15T12:49:02.153Z,2.78
2023-05-15T12:51:30.815Z,4.22
2023-05-15T12:53:59.906Z,2.22
2023-05-15T12:56:31.113Z,3.88
2023-05-15T12:59:00.186Z,2.50
2023-05-15T13:01:30.116Z,2.65
2023-05-15T13:03:59.673Z,2.20
2023-05-15T13:06:38.360Z,5.20
2023-05-15T13:09:14.800Z,3.60
2023-05-15T13:11:46.786Z,2.58
2023-05-15T13:14:18.286Z,4.63
2023-05-15T13:16:47.239Z,5.13
2023-05-15T13:19:17.853Z,1.63
2023-05-15T13:21:46.836Z,2.17
2023-05-15T13:24:15.893Z,4.50
2023-05-15T13:26:44.588Z,3.25
2023-05-15T13:29:13.986Z,3.53
2023-05-15T13:31:42.984Z,2.95
2023-05-15T13:34:12.108Z,5.60
2023-05-15T13:36:41.215Z,3.67
2023-05-15T13:39:10.696Z,2.90
2023-05-15T13:41:39.447Z,2.15
2023-05-15T13:44:08.775Z,3.15
2023-05-15T13:46:37.876Z,3.90
2023-05-15T13:49:07.803Z,2.63
2023-05-15T13:51:36.575Z,8.52
2023-05-15T13:54:05.783Z,3.72
2023-05-15T13:56:34.444Z,4.20
2023-05-15T13:59:03.505Z,4.30
2023-05-15T14:01:32.224Z,4.00
2023-05-15T14:04:01.403Z,2.90
2023-05-15T14:06:33.582Z,7.57
2023-05-15T14:09:02.632Z,5.90
2023-05-15T14:11:31.345Z,3.00
2023-05-15T14:14:00.402Z,3.63
2023-05-15T14:16:29.091Z,3.30
2023-05-15T14:18:58.659Z,2.30
2023-05-15T14:21:27.775Z,3.15
2023-05-15T14:23:56.962Z,2.67
2023-05-15T14:26:26.199Z,2.45
2023-05-15T14:28:55.776Z,5.70
2023-05-15T14:31:24.721Z,2.40
2023-05-15T14:33:53.766Z,1.90
2023-05-15T14:36:22.622Z,1.98
2023-05-15T14:38:51.783Z,3.17
2023-05-15T14:41:22.153Z,3.60
2023-05-15T14:43:51.374Z,3.38
2023-05-15T14:46:20.234Z,3.05
2023-05-15T14:48:49.313Z,5.40
2023-05-15T14:51:19.857Z,3.85
2023-05-15T14:53:49.143Z,6.90
2023-05-15T14:56:17.838Z,3.97
2023-05-15T14:58:47.164Z,1.73
2023-05-15T15:01:16.441Z,1.70
2023-05-15T15:03:45.746Z,1.30
2023-05-15T15:06:14.801Z,1.88
2023-05-15T15:08:44.030Z,2.72
2023-05-15T15:11:12.852Z,1.75
2023-05-15T15:13:41.908Z,3.08
2023-05-15T15:16:10.789Z,2.90
2023-05-15T15:18:40.071Z,1.35
2023-05-15T15:21:09.502Z,1.60
2023-05-15T15:23:38.561Z,1.77
2023-05-15T15:26:07.369Z,1.77
2023-05-15T15:28:36.452Z,1.23
2023-05-15T15:31:05.420Z,4.25
2023-05-15T15:33:34.432Z,1.92
2023-05-15T15:36:02.822Z,3.42
2023-05-15T15:38:31.733Z,3.30
2023-05-15T15:41:00.265Z,1.85
2023-05-15T15:43:29.205Z,3.08
2023-05-15T15:45:57.752Z,5.53
2023-05-15T15:48:26.544Z,1.92
2023-05-15T15:50:55.104Z,2.30
2023-05-15T15:53:24.044Z,1.63
2023-05-15T15:55:52.729Z,3.00
2023-05-15T15:58:21.524Z,7.13
2023-05-15T16:00:50.037Z,2.45
2023-05-15T16:03:19.069Z,1.55
2023-05-15T16:05:47.804Z,1.25
2023-05-15T16:08:16.796Z,1.73
2023-05-15T16:10:45.549Z,1.88
2023-05-15T16:13:14.468Z,1.52
2023-05-15T16:15:43.762Z,1.63
2023-05-15T16:18:12.714Z,1.73
2023-05-15T16:20:41.488Z,2.38
2023-05-15T16:23:11.915Z,4.60
2023-05-15T16:25:40.628Z,5.57
2023-05-15T16:28:10.248Z,6.68
2023-05-15T16:30:47.954Z,2.40
2023-05-15T16:33:20.735Z,2.65
2023-05-15T16:35:49.207Z,3.70
2023-05-15T16:38:18.519Z,3.22
2023-05-15T16:40:47.608Z,2.42
2023-05-15T16:43:17.060Z,2.28
2023-05-15T16:45:45.630Z,3.65
2023-05-15T16:48:14.481Z,7.60
2023-05-15T16:50:43.104Z,5.10
2023-05-15T16:53:12.303Z,5.45
2023-05-15T16:55:41.207Z,4.53
2023-05-15T16:58:10.068Z,2.67
2023-05-15T17:00:38.643Z,3.22
2023-05-15T17:03:08.424Z,2.42
2023-05-15T17:05:37.037Z,10.45
2023-05-15T17:08:06.304Z,2.03
2023-05-15T17:10:34.906Z,3.80
2023-05-15T17:13:05.100Z,4.60
2023-05-15T17:15:33.705Z,4.07
2023-05-15T17:18:02.670Z,2.85
2023-05-15T17:20:31.295Z,3.33
2023-05-15T17:23:00.262Z,6.40
2023-05-15T17:25:28.939Z,4.72
2023-05-15T17:27:58.063Z,2.05
2023-05-15T17:30:26.919Z,2.95
2023-05-15T17:32:56.150Z,3.10
2023-05-15T17:35:25.107Z,2.92
2023-05-15T17:37:54.167Z,2.72
2023-05-15T17:40:22.877Z,5.57
2023-05-15T17:42:51.703Z,1.50
2023-05-15T17:45:20.298Z,2.70
2023-05-15T17:47:49.479Z,2.60
2023-05-15T17:50:18.225Z,6.00
2023-05-15T17:52:47.098Z,2.25
2023-05-15T17:55:16.021Z,5.45
2023-05-15T17:57:45.279Z,3.83
2023-05-15T18:00:14.742Z,11.25
2023-05-15T18:02:43.715Z,7.82
2023-05-15T18:05:12.355Z,9.75
2023-05-15T18:07:42.787Z,6.30
2023-05-15T18:10:11.560Z,9.23
2023-05-15T18:12:40.779Z,9.32
2023-05-15T18:15:09.996Z,13.85
2023-05-15T18:17:38.948Z,9.32
2023-05-15T18:20:08.503Z,6.63
2023-05-15T18:22:37.624Z,6.20
2023-05-15T18:25:06.781Z,3.08
2023-05-15T18:27:35.783Z,6.03
2023-05-15T18:30:04.881Z,4.28
2023-05-15T18:32:34.224Z,7.65
2023-05-15T18:35:03.133Z,7.88
2023-05-15T18:37:32.206Z,7.95
2023-05-15T18:40:00.834Z,7.00
2023-05-15T18:42:29.967Z,5.68
2023-05-15T18:44:58.614Z,4.78
2023-05-15T18:47:27.901Z,5.22
2023-05-15T18:49:57.225Z,7.82
2023-05-15T18:52:27.301Z,5.28
2023-05-15T18:54:57.834Z,5.78
2023-05-15T18:57:26.698Z,7.47
2023-05-15T18:59:55.573Z,5.82
2023-05-15T19:02:26.089Z,6.70
2023-05-15T19:04:55.076Z,7.93
2023-05-15T19:07:24.057Z,5.47
2023-05-15T19:09:52.679Z,4.97
2023-05-15T19:12:21.569Z,9.55
2023-05-15T19:14:50.120Z,4.68
2023-05-15T19:17:20.472Z,6.18
2023-05-15T19:19:48.999Z,6.40
2023-05-15T19:22:19.052Z,6.80
2023-05-15T19:24:48.014Z,5.25
2023-05-15T19:27:16.920Z,4.40
2023-05-15T19:29:45.593Z,5.40
2023-05-15T19:32:14.456Z,4.93
2023-05-15T19:34:43.268Z,5.25
2023-05-15T19:37:12.217Z,4.72
2023-05-15T19:39:41.156Z,7.90
2023-05-15T19:42:10.182Z,6.68
2023-05-15T19:44:38.727Z,6.93
2023-05-15T19:47:09.881Z,5.80
2023-05-15T19:49:38.402Z,8.13
2023-05-15T19:52:07.681Z,3.75
2023-05-15T19:54:36.237Z,10.07
2023-05-15T19:57:05.484Z,9.60
2023-05-15T19:59:34.010Z,3.25
2023-05-15T20:02:03.537Z,3.30
2023-05-15T20:04:32.790Z,5.63
2023-05-15T20:07:01.669Z,6.15
2023-05-15T20:09:30.757Z,5.72
2023-05-15T20:11:59.662Z,7.25
2023-05-15T20:14:28.217Z,5.90
2023-05-15T20:16:57.281Z,5.97
2023-05-15T20:19:26.294Z,5.13
2023-05-15T20:21:55.372Z,6.13
2023-05-15T20:24:26.062Z,12.30
2023-05-15T20:26:54.967Z,24.45
2023-05-15T20:29:23.633Z,20.80
2023-05-15T20:31:53.072Z,18.75
2023-05-15T20:34:22.056Z,16.10
2023-05-15T20:36:52.974Z,13.00
2023-05-15T20:39:21.601Z,17.27
2023-05-15T20:41:50.958Z,11.60
2023-05-15T20:44:19.456Z,12.85
2023-05-15T20:46:48.305Z,13.75
2023-05-15T20:49:16.761Z,13.90
2023-05-15T20:51:45.728Z,9.68
2023-05-15T20:54:15.301Z,13.93
2023-05-15T20:56:44.133Z,8.73
2023-05-15T20:59:13.630Z,9.60
2023-05-15T21:01:43.024Z,7.57
2023-05-15T21:04:11.703Z,8.43
2023-05-15T21:06:40.739Z,8.50
2023-05-15T21:09:09.380Z,10.25
2023-05-15T21:11:38.381Z,8.68
2023-05-15T21:14:07.115Z,7.72
2023-05-15T21:16:36.653Z,6.82
2023-05-15T21:19:05.374Z,6.68
2023-05-15T21:21:35.805Z,6.60
2023-05-15T21:24:04.525Z,7.68
2023-05-15T21:26:33.378Z,9.18
2023-05-15T21:29:02.877Z,3.95
2023-05-15T21:31:31.937Z,3.97
2023-05-15T21:34:00.463Z,7.22
2023-05-15T21:36:29.302Z,6.18
2023-05-15T21:38:57.831Z,7.15
2023-05-15T21:41:26.879Z,4.65
2023-05-15T21:43:55.462Z,5.18
2023-05-15T21:46:24.428Z,4.28
2023-05-15T21:48:53.116Z,5.00
2023-05-15T21:51:21.994Z,6.93
2023-05-15T21:53:50.597Z,4.55
2023-05-15T21:56:19.431Z,5.32
2023-05-15T21:58:47.988Z,3.75
2023-05-15T22:01:18.073Z,7.03
2023-05-15T22:03:46.793Z,4.20
2023-05-15T22:06:16.117Z,3.80
2023-05-15T22:08:44.706Z,5.45
2023-05-15T22:11:13.645Z,3.88
2023-05-15T22:13:42.403Z,5.03
2023-05-15T22:16:11.770Z,5.70
2023-05-15T22:18:42.432Z,3.67
2023-05-15T22:21:11.477Z,3.08
2023-05-15T22:23:39.966Z,3.13
2023-05-15T22:26:09.110Z,3.33
2023-05-15T22:28:37.756Z,3.58
2023-05-15T22:31:06.567Z,3.60
2023-05-15T22:33:35.075Z,2.85
2023-05-15T22:36:04.104Z,3.13
2023-05-15T22:38:32.679Z,2.03
2023-05-15T22:41:01.750Z,4.63
2023-05-15T22:43:30.550Z,3.40
2023-05-15T22:45:59.455Z,2.33
2023-05-15T22:48:28.086Z,1.95
2023-05-15T22:50:58.084Z,2.65
2023-05-15T22:53:27.343Z,2.22
2023-05-15T22:55:56.195Z,3.05
2023-05-15T22:58:24.726Z,5.63
2023-05-15T23:00:53.822Z,3.70
2023-05-15T23:03:22.392Z,3.42
2023-05-15T23:05:53.966Z,3.33
2023-05-15T23:08:22.694Z,1.70
2023-05-15T23:10:53.544Z,1.83
2023-05-15T23:13:22.513Z,2.50
2023-05-15T23:15:51.553Z,1.63
2023-05-15T23:18:20.390Z,4.03
2023-05-15T23:20:49.466Z,2.17
2023-05-15T23:23:19.374Z,1.60
2023-05-15T23:25:48.323Z,1.88
2023-05-15T23:28:17.073Z,3.90
2023-05-15T23:30:46.195Z,2.10
2023-05-15T23:33:14.786Z,1.30
2023-05-15T23:35:43.862Z,2.92
2023-05-15T23:38:12.659Z,1.63
2023-05-15T23:40:41.552Z,4.25
2023-05-15T23:43:10.398Z,2.03
2023-05-15T23:45:39.302Z,1.95
2023-05-15T23:48:08.045Z,2.47
2023-05-15T23:50:37.327Z,2.40
2023-05-15T23:53:05.958Z,1.05
2023-05-15T23:55:35.000Z,1.52
2023-05-15T23:58:03.811Z,1.30
